sensor_id;sensor_type;location;lat;lon;timestamp;P1;durP1;ratioP1;P2;durP2;ratioP2
59872;SDS011;50750;51.636;4.948;2023-07-31T00:00:57;5.20;;;2.30;;
59872;SDS011;50750;51.636;4.948;2023-07-31T00:03:26;5.60;;;2.70;;
59872;SDS011;50750;51.636;4.948;2023-07-31T00:05:53;6.00;;;2.60;;
59872;SDS011;50750;51.636;4.948;2023-07-31T00:08:19;5.70;;;2.80;;
59872;SDS011;50750;51.636;4.948;2023-07-31T00:10:45;5.60;;;2.60;;
59872;SDS011;50750;51.636;4.948;2023-07-31T00:13:12;5.90;;;2.70;;
59872;SDS011;50750;51.636;4.948;2023-07-31T00:15:39;5.20;;;2.50;;
59872;SDS011;50750;51.636;4.948;2023-07-31T00:18:06;5.90;;;2.50;;
59872;SDS011;50750;51.636;4.948;2023-07-31T00:20:33;5.20;;;2.50;;
59872;SDS011;50750;51.636;4.948;2023-07-31T00:22:59;4.80;;;2.50;;
59872;SDS011;50750;51.636;4.948;2023-07-31T00:25:25;5.50;;;2.70;;
59872;SDS011;50750;51.636;4.948;2023-07-31T00:27:52;5.90;;;3.10;;
59872;SDS011;50750;51.636;4.948;2023-07-31T00:30:18;4.90;;;2.30;;
59872;SDS011;50750;51.636;4.948;2023-07-31T00:32:45;6.80;;;2.80;;
59872;SDS011;50750;51.636;4.948;2023-07-31T00:35:11;5.20;;;2.60;;
59872;SDS011;50750;51.636;4.948;2023-07-31T00:37:37;6.70;;;2.80;;
59872;SDS011;50750;51.636;4.948;2023-07-31T00:40:04;4.70;;;2.50;;
59872;SDS011;50750;51.636;4.948;2023-07-31T00:42:31;5.80;;;2.80;;
59872;SDS011;50750;51.636;4.948;2023-07-31T00:44:57;6.10;;;2.60;;
59872;SDS011;50750;51.636;4.948;2023-07-31T00:47:23;6.20;;;2.80;;
59872;SDS011;50750;51.636;4.948;2023-07-31T00:49:50;5.70;;;2.90;;
59872;SDS011;50750;51.636;4.948;2023-07-31T00:52:17;5.00;;;3.10;;
59872;SDS011;50750;51.636;4.948;2023-07-31T00:54:45;5.60;;;2.80;;
59872;SDS011;50750;51.636;4.948;2023-07-31T00:57:11;5.60;;;3.00;;
59872;SDS011;50750;51.636;4.948;2023-07-31T00:59:38;6.80;;;3.10;;
59872;SDS011;50750;51.636;4.948;2023-07-31T01:02:04;7.30;;;2.70;;
59872;SDS011;50750;51.636;4.948;2023-07-31T01:04:31;5.40;;;2.80;;
59872;SDS011;50750;51.636;4.948;2023-07-31T01:07:11;4.70;;;2.60;;
59872;SDS011;50750;51.636;4.948;2023-07-31T01:12:43;5.70;;;3.10;;
59872;SDS011;50750;51.636;4.948;2023-07-31T01:17:43;6.10;;;2.60;;
59872;SDS011;50750;51.636;4.948;2023-07-31T01:20:15;4.80;;;2.70;;
59872;SDS011;50750;51.636;4.948;2023-07-31T01:26:24;5.30;;;3.10;;
59872;SDS011;50750;51.636;4.948;2023-07-31T01:28:55;5.70;;;3.00;;
59872;SDS011;50750;51.636;4.948;2023-07-31T01:31:28;5.40;;;2.60;;
59872;SDS011;50750;51.636;4.948;2023-07-31T01:33:56;5.70;;;3.30;;
59872;SDS011;50750;51.636;4.948;2023-07-31T01:36:25;5.50;;;2.70;;
59872;SDS011;50750;51.636;4.948;2023-07-31T01:38:53;6.20;;;2.80;;
59872;SDS011;50750;51.636;4.948;2023-07-31T01:41:24;6.40;;;2.90;;
59872;SDS011;50750;51.636;4.948;2023-07-31T01:43:50;6.40;;;3.50;;
59872;SDS011;50750;51.636;4.948;2023-07-31T01:46:17;7.20;;;3.10;;
59872;SDS011;50750;51.636;4.948;2023-07-31T01:48:43;5.80;;;3.20;;
59872;SDS011;50750;51.636;4.948;2023-07-31T01:51:09;6.60;;;2.90;;
59872;SDS011;50750;51.636;4.948;2023-07-31T01:53:35;5.40;;;2.70;;
59872;SDS011;50750;51.636;4.948;2023-07-31T01:56:02;6.00;;;2.80;;
59872;SDS011;50750;51.636;4.948;2023-07-31T01:58:29;6.80;;;3.50;;
59872;SDS011;50750;51.636;4.948;2023-07-31T02:00:55;4.40;;;2.80;;
59872;SDS011;50750;51.636;4.948;2023-07-31T02:03:21;6.20;;;3.20;;
59872;SDS011;50750;51.636;4.948;2023-07-31T02:05:48;7.30;;;3.10;;
59872;SDS011;50750;51.636;4.948;2023-07-31T02:08:15;6.70;;;3.10;;
59872;SDS011;50750;51.636;4.948;2023-07-31T02:10:42;5.70;;;2.70;;
59872;SDS011;50750;51.636;4.948;2023-07-31T02:13:09;7.40;;;3.20;;
59872;SDS011;50750;51.636;4.948;2023-07-31T02:15:36;5.00;;;3.10;;
59872;SDS011;50750;51.636;4.948;2023-07-31T02:18:03;6.00;;;3.00;;
59872;SDS011;50750;51.636;4.948;2023-07-31T02:20:29;7.70;;;3.50;;
59872;SDS011;50750;51.636;4.948;2023-07-31T02:22:56;5.30;;;3.00;;
59872;SDS011;50750;51.636;4.948;2023-07-31T02:25:22;6.20;;;3.20;;
59872;SDS011;50750;51.636;4.948;2023-07-31T02:27:48;6.10;;;2.70;;
59872;SDS011;50750;51.636;4.948;2023-07-31T02:30:14;6.70;;;3.10;;
59872;SDS011;50750;51.636;4.948;2023-07-31T02:32:41;5.50;;;3.20;;
59872;SDS011;50750;51.636;4.948;2023-07-31T02:35:09;6.40;;;3.30;;
59872;SDS011;50750;51.636;4.948;2023-07-31T02:37:37;6.10;;;3.00;;
59872;SDS011;50750;51.636;4.948;2023-07-31T02:40:05;6.70;;;3.30;;
59872;SDS011;50750;51.636;4.948;2023-07-31T02:42:31;5.90;;;3.10;;
59872;SDS011;50750;51.636;4.948;2023-07-31T02:44:58;5.60;;;3.20;;
59872;SDS011;50750;51.636;4.948;2023-07-31T02:47:24;7.40;;;3.50;;
59872;SDS011;50750;51.636;4.948;2023-07-31T02:49:50;6.70;;;3.20;;
59872;SDS011;50750;51.636;4.948;2023-07-31T02:52:17;6.10;;;3.00;;
59872;SDS011;50750;51.636;4.948;2023-07-31T02:54:43;6.20;;;2.90;;
59872;SDS011;50750;51.636;4.948;2023-07-31T02:57:10;6.30;;;2.80;;
59872;SDS011;50750;51.636;4.948;2023-07-31T02:59:37;6.00;;;3.30;;
59872;SDS011;50750;51.636;4.948;2023-07-31T03:02:03;7.70;;;3.40;;
59872;SDS011;50750;51.636;4.948;2023-07-31T03:04:30;6.40;;;3.10;;
59872;SDS011;50750;51.636;4.948;2023-07-31T03:06:56;4.70;;;2.90;;
59872;SDS011;50750;51.636;4.948;2023-07-31T03:09:22;6.50;;;3.20;;
59872;SDS011;50750;51.636;4.948;2023-07-31T03:11:49;6.00;;;3.10;;
59872;SDS011;50750;51.636;4.948;2023-07-31T03:14:15;6.80;;;3.50;;
59872;SDS011;50750;51.636;4.948;2023-07-31T03:16:41;8.10;;;3.70;;
59872;SDS011;50750;51.636;4.948;2023-07-31T03:19:10;7.10;;;3.40;;
59872;SDS011;50750;51.636;4.948;2023-07-31T03:21:36;7.50;;;3.20;;
59872;SDS011;50750;51.636;4.948;2023-07-31T03:24:03;7.50;;;3.30;;
59872;SDS011;50750;51.636;4.948;2023-07-31T03:26:31;6.40;;;3.30;;
59872;SDS011;50750;51.636;4.948;2023-07-31T03:28:57;7.00;;;3.40;;
59872;SDS011;50750;51.636;4.948;2023-07-31T03:31:24;6.50;;;3.00;;
59872;SDS011;50750;51.636;4.948;2023-07-31T03:33:50;6.10;;;3.20;;
59872;SDS011;50750;51.636;4.948;2023-07-31T03:36:16;6.70;;;3.90;;
59872;SDS011;50750;51.636;4.948;2023-07-31T03:38:43;7.90;;;3.50;;
59872;SDS011;50750;51.636;4.948;2023-07-31T03:41:09;6.10;;;3.20;;
59872;SDS011;50750;51.636;4.948;2023-07-31T03:43:36;6.50;;;3.30;;
59872;SDS011;50750;51.636;4.948;2023-07-31T03:46:03;7.70;;;3.30;;
59872;SDS011;50750;51.636;4.948;2023-07-31T03:48:30;6.80;;;3.20;;
59872;SDS011;50750;51.636;4.948;2023-07-31T03:50:56;6.70;;;3.40;;
59872;SDS011;50750;51.636;4.948;2023-07-31T03:53:23;6.20;;;3.20;;
59872;SDS011;50750;51.636;4.948;2023-07-31T03:55:49;6.10;;;3.10;;
59872;SDS011;50750;51.636;4.948;2023-07-31T03:58:15;5.70;;;3.00;;
59872;SDS011;50750;51.636;4.948;2023-07-31T04:00:42;6.40;;;3.50;;
59872;SDS011;50750;51.636;4.948;2023-07-31T04:03:08;6.40;;;3.60;;
59872;SDS011;50750;51.636;4.948;2023-07-31T04:05:37;6.80;;;3.50;;
59872;SDS011;50750;51.636;4.948;2023-07-31T04:08:05;6.40;;;3.70;;
59872;SDS011;50750;51.636;4.948;2023-07-31T04:10:31;4.70;;;2.90;;
59872;SDS011;50750;51.636;4.948;2023-07-31T04:12:59;6.50;;;3.30;;
59872;SDS011;50750;51.636;4.948;2023-07-31T04:15:26;7.30;;;3.30;;
59872;SDS011;50750;51.636;4.948;2023-07-31T04:17:53;6.90;;;3.70;;
59872;SDS011;50750;51.636;4.948;2023-07-31T04:20:19;4.90;;;2.80;;
59872;SDS011;50750;51.636;4.948;2023-07-31T04:22:45;6.20;;;3.10;;
59872;SDS011;50750;51.636;4.948;2023-07-31T04:25:12;5.30;;;2.90;;
59872;SDS011;50750;51.636;4.948;2023-07-31T04:27:39;6.40;;;3.10;;
59872;SDS011;50750;51.636;4.948;2023-07-31T04:30:06;5.40;;;3.30;;
59872;SDS011;50750;51.636;4.948;2023-07-31T04:32:33;6.50;;;3.30;;
59872;SDS011;50750;51.636;4.948;2023-07-31T04:34:59;5.40;;;2.60;;
59872;SDS011;50750;51.636;4.948;2023-07-31T04:37:25;6.80;;;3.40;;
59872;SDS011;50750;51.636;4.948;2023-07-31T04:39:52;6.10;;;2.90;;
59872;SDS011;50750;51.636;4.948;2023-07-31T04:42:18;6.80;;;3.50;;
59872;SDS011;50750;51.636;4.948;2023-07-31T04:44:44;5.90;;;3.10;;
59872;SDS011;50750;51.636;4.948;2023-07-31T04:47:11;5.00;;;2.90;;
59872;SDS011;50750;51.636;4.948;2023-07-31T04:49:37;6.00;;;3.40;;
59872;SDS011;50750;51.636;4.948;2023-07-31T04:52:04;7.00;;;3.10;;
59872;SDS011;50750;51.636;4.948;2023-07-31T04:54:31;5.10;;;3.10;;
59872;SDS011;50750;51.636;4.948;2023-07-31T04:56:57;5.10;;;2.90;;
59872;SDS011;50750;51.636;4.948;2023-07-31T04:59:23;5.50;;;3.00;;
59872;SDS011;50750;51.636;4.948;2023-07-31T05:01:49;6.00;;;3.00;;
59872;SDS011;50750;51.636;4.948;2023-07-31T05:04:16;5.20;;;2.90;;
59872;SDS011;50750;51.636;4.948;2023-07-31T05:06:42;5.00;;;2.80;;
59872;SDS011;50750;51.636;4.948;2023-07-31T05:09:09;5.50;;;2.80;;
59872;SDS011;50750;51.636;4.948;2023-07-31T05:11:36;6.10;;;2.80;;
59872;SDS011;50750;51.636;4.948;2023-07-31T05:14:02;6.60;;;3.40;;
59872;SDS011;50750;51.636;4.948;2023-07-31T05:16:29;5.20;;;3.10;;
59872;SDS011;50750;51.636;4.948;2023-07-31T05:18:55;5.50;;;2.90;;
59872;SDS011;50750;51.636;4.948;2023-07-31T05:21:22;5.50;;;3.00;;
59872;SDS011;50750;51.636;4.948;2023-07-31T05:23:48;5.80;;;2.90;;
59872;SDS011;50750;51.636;4.948;2023-07-31T05:26:15;3.90;;;2.40;;
59872;SDS011;50750;51.636;4.948;2023-07-31T05:28:41;5.30;;;3.00;;
59872;SDS011;50750;51.636;4.948;2023-07-31T05:31:07;5.90;;;3.30;;
59872;SDS011;50750;51.636;4.948;2023-07-31T05:33:34;4.70;;;2.60;;
59872;SDS011;50750;51.636;4.948;2023-07-31T05:36:00;5.70;;;3.10;;
59872;SDS011;50750;51.636;4.948;2023-07-31T05:38:27;5.10;;;2.80;;
59872;SDS011;50750;51.636;4.948;2023-07-31T05:40:53;5.40;;;2.90;;
59872;SDS011;50750;51.636;4.948;2023-07-31T05:43:19;5.60;;;2.80;;
59872;SDS011;50750;51.636;4.948;2023-07-31T05:45:46;5.20;;;2.50;;
59872;SDS011;50750;51.636;4.948;2023-07-31T05:48:13;5.20;;;2.80;;
59872;SDS011;50750;51.636;4.948;2023-07-31T05:50:40;5.10;;;3.00;;
59872;SDS011;50750;51.636;4.948;2023-07-31T05:53:06;5.00;;;2.60;;
59872;SDS011;50750;51.636;4.948;2023-07-31T05:55:34;5.00;;;2.70;;
59872;SDS011;50750;51.636;4.948;2023-07-31T05:58:00;4.70;;;2.60;;
59872;SDS011;50750;51.636;4.948;2023-07-31T06:00:27;4.90;;;2.70;;
59872;SDS011;50750;51.636;4.948;2023-07-31T06:02:54;5.20;;;2.80;;
59872;SDS011;50750;51.636;4.948;2023-07-31T06:05:20;4.90;;;2.70;;
59872;SDS011;50750;51.636;4.948;2023-07-31T06:07:47;4.50;;;2.60;;
59872;SDS011;50750;51.636;4.948;2023-07-31T06:10:13;4.50;;;2.40;;
59872;SDS011;50750;51.636;4.948;2023-07-31T06:12:40;4.70;;;2.40;;
59872;SDS011;50750;51.636;4.948;2023-07-31T06:15:06;5.00;;;2.50;;
59872;SDS011;50750;51.636;4.948;2023-07-31T06:17:33;4.10;;;2.30;;
59872;SDS011;50750;51.636;4.948;2023-07-31T06:19:59;5.70;;;2.40;;
59872;SDS011;50750;51.636;4.948;2023-07-31T06:22:25;4.40;;;2.80;;
59872;SDS011;50750;51.636;4.948;2023-07-31T06:24:52;4.30;;;2.50;;
59872;SDS011;50750;51.636;4.948;2023-07-31T06:27:18;5.50;;;2.60;;
59872;SDS011;50750;51.636;4.948;2023-07-31T06:29:45;5.10;;;2.60;;
59872;SDS011;50750;51.636;4.948;2023-07-31T06:32:11;4.80;;;2.60;;
59872;SDS011;50750;51.636;4.948;2023-07-31T06:34:37;4.40;;;2.60;;
59872;SDS011;50750;51.636;4.948;2023-07-31T06:37:04;4.60;;;2.50;;
59872;SDS011;50750;51.636;4.948;2023-07-31T06:39:31;4.70;;;2.20;;
59872;SDS011;50750;51.636;4.948;2023-07-31T06:41:57;4.30;;;2.50;;
59872;SDS011;50750;51.636;4.948;2023-07-31T06:44:23;4.00;;;2.30;;
59872;SDS011;50750;51.636;4.948;2023-07-31T06:46:50;3.90;;;2.40;;
59872;SDS011;50750;51.636;4.948;2023-07-31T06:49:17;4.60;;;2.40;;
59872;SDS011;50750;51.636;4.948;2023-07-31T06:51:43;3.80;;;2.10;;
59872;SDS011;50750;51.636;4.948;2023-07-31T06:54:10;4.30;;;2.20;;
59872;SDS011;50750;51.636;4.948;2023-07-31T06:56:36;4.20;;;2.50;;
59872;SDS011;50750;51.636;4.948;2023-07-31T06:59:03;4.10;;;2.40;;
59872;SDS011;50750;51.636;4.948;2023-07-31T07:01:29;4.60;;;2.50;;
59872;SDS011;50750;51.636;4.948;2023-07-31T07:03:55;3.80;;;2.20;;
59872;SDS011;50750;51.636;4.948;2023-07-31T07:06:22;4.60;;;2.50;;
59872;SDS011;50750;51.636;4.948;2023-07-31T07:08:49;5.50;;;2.50;;
59872;SDS011;50750;51.636;4.948;2023-07-31T07:11:15;4.00;;;2.00;;
59872;SDS011;50750;51.636;4.948;2023-07-31T07:13:41;3.60;;;2.10;;
59872;SDS011;50750;51.636;4.948;2023-07-31T07:16:08;4.20;;;1.90;;
59872;SDS011;50750;51.636;4.948;2023-07-31T07:18:34;5.10;;;2.30;;
59872;SDS011;50750;51.636;4.948;2023-07-31T07:21:01;3.80;;;2.00;;
59872;SDS011;50750;51.636;4.948;2023-07-31T07:23:28;3.00;;;2.00;;
59872;SDS011;50750;51.636;4.948;2023-07-31T07:25:54;3.90;;;2.20;;
59872;SDS011;50750;51.636;4.948;2023-07-31T07:28:21;3.70;;;1.90;;
59872;SDS011;50750;51.636;4.948;2023-07-31T07:30:51;3.40;;;1.80;;
59872;SDS011;50750;51.636;4.948;2023-07-31T07:33:19;3.30;;;2.00;;
59872;SDS011;50750;51.636;4.948;2023-07-31T07:35:46;3.90;;;2.10;;
59872;SDS011;50750;51.636;4.948;2023-07-31T07:38:13;3.00;;;1.80;;
59872;SDS011;50750;51.636;4.948;2023-07-31T07:40:41;3.10;;;1.80;;
59872;SDS011;50750;51.636;4.948;2023-07-31T07:43:08;3.90;;;2.10;;
59872;SDS011;50750;51.636;4.948;2023-07-31T07:45:34;3.60;;;1.80;;
59872;SDS011;50750;51.636;4.948;2023-07-31T07:48:00;4.30;;;2.20;;
59872;SDS011;50750;51.636;4.948;2023-07-31T07:50:27;3.20;;;2.00;;
59872;SDS011;50750;51.636;4.948;2023-07-31T07:52:53;3.60;;;2.10;;
59872;SDS011;50750;51.636;4.948;2023-07-31T07:55:19;3.70;;;1.70;;
59872;SDS011;50750;51.636;4.948;2023-07-31T07:57:46;2.90;;;1.90;;
59872;SDS011;50750;51.636;4.948;2023-07-31T08:00:13;3.40;;;2.00;;
59872;SDS011;50750;51.636;4.948;2023-07-31T08:02:39;3.70;;;2.00;;
59872;SDS011;50750;51.636;4.948;2023-07-31T08:05:06;3.60;;;1.90;;
59872;SDS011;50750;51.636;4.948;2023-07-31T08:07:33;3.60;;;1.90;;
59872;SDS011;50750;51.636;4.948;2023-07-31T08:09:59;3.60;;;1.90;;
59872;SDS011;50750;51.636;4.948;2023-07-31T08:12:26;3.90;;;2.00;;
59872;SDS011;50750;51.636;4.948;2023-07-31T08:14:52;3.40;;;1.80;;
59872;SDS011;50750;51.636;4.948;2023-07-31T08:17:19;3.10;;;1.70;;
59872;SDS011;50750;51.636;4.948;2023-07-31T08:19:45;3.20;;;1.90;;
59872;SDS011;50750;51.636;4.948;2023-07-31T08:22:12;4.80;;;2.20;;
59872;SDS011;50750;51.636;4.948;2023-07-31T08:24:38;3.20;;;1.60;;
59872;SDS011;50750;51.636;4.948;2023-07-31T08:27:05;2.90;;;1.70;;
59872;SDS011;50750;51.636;4.948;2023-07-31T08:29:32;3.10;;;1.90;;
59872;SDS011;50750;51.636;4.948;2023-07-31T08:31:58;6.00;;;2.00;;
59872;SDS011;50750;51.636;4.948;2023-07-31T08:34:25;2.80;;;1.80;;
59872;SDS011;50750;51.636;4.948;2023-07-31T08:36:51;3.10;;;1.80;;
59872;SDS011;50750;51.636;4.948;2023-07-31T08:39:17;3.60;;;2.10;;
59872;SDS011;50750;51.636;4.948;2023-07-31T08:41:44;3.30;;;1.80;;
59872;SDS011;50750;51.636;4.948;2023-07-31T08:44:10;3.90;;;1.90;;
59872;SDS011;50750;51.636;4.948;2023-07-31T08:49:06;3.20;;;2.00;;
59872;SDS011;50750;51.636;4.948;2023-07-31T08:51:34;4.00;;;2.10;;
59872;SDS011;50750;51.636;4.948;2023-07-31T08:54:01;2.90;;;1.80;;
59872;SDS011;50750;51.636;4.948;2023-07-31T08:56:31;4.10;;;2.10;;
59872;SDS011;50750;51.636;4.948;2023-07-31T08:58:59;3.70;;;1.90;;
59872;SDS011;50750;51.636;4.948;2023-07-31T09:01:28;3.20;;;1.90;;
59872;SDS011;50750;51.636;4.948;2023-07-31T09:03:57;3.80;;;2.20;;
59872;SDS011;50750;51.636;4.948;2023-07-31T09:06:26;3.30;;;2.20;;
59872;SDS011;50750;51.636;4.948;2023-07-31T09:08:55;4.10;;;2.30;;
59872;SDS011;50750;51.636;4.948;2023-07-31T09:11:22;3.20;;;2.00;;
59872;SDS011;50750;51.636;4.948;2023-07-31T09:13:50;3.30;;;1.90;;
59872;SDS011;50750;51.636;4.948;2023-07-31T09:16:18;4.90;;;2.40;;
59872;SDS011;50750;51.636;4.948;2023-07-31T09:18:52;4.00;;;2.10;;
59872;SDS011;50750;51.636;4.948;2023-07-31T09:21:21;3.50;;;2.40;;
59872;SDS011;50750;51.636;4.948;2023-07-31T09:23:47;3.90;;;1.90;;
59872;SDS011;50750;51.636;4.948;2023-07-31T09:26:30;3.80;;;2.30;;
59872;SDS011;50750;51.636;4.948;2023-07-31T09:29:01;3.10;;;1.90;;
59872;SDS011;50750;51.636;4.948;2023-07-31T09:31:41;3.40;;;2.00;;
59872;SDS011;50750;51.636;4.948;2023-07-31T09:34:08;4.90;;;2.20;;
59872;SDS011;50750;51.636;4.948;2023-07-31T09:36:41;3.40;;;1.90;;
59872;SDS011;50750;51.636;4.948;2023-07-31T09:39:09;4.00;;;2.30;;
59872;SDS011;50750;51.636;4.948;2023-07-31T09:41:37;3.70;;;1.90;;
59872;SDS011;50750;51.636;4.948;2023-07-31T09:44:05;3.50;;;2.00;;
59872;SDS011;50750;51.636;4.948;2023-07-31T09:46:32;3.80;;;2.10;;
59872;SDS011;50750;51.636;4.948;2023-07-31T09:49:11;3.50;;;2.00;;
59872;SDS011;50750;51.636;4.948;2023-07-31T09:51:40;3.20;;;2.00;;
59872;SDS011;50750;51.636;4.948;2023-07-31T09:54:08;3.30;;;2.00;;
59872;SDS011;50750;51.636;4.948;2023-07-31T09:56:42;3.50;;;2.00;;
59872;SDS011;50750;51.636;4.948;2023-07-31T09:59:13;3.30;;;2.00;;
59872;SDS011;50750;51.636;4.948;2023-07-31T10:01:41;3.10;;;2.00;;
59872;SDS011;50750;51.636;4.948;2023-07-31T10:04:09;3.30;;;2.00;;
59872;SDS011;50750;51.636;4.948;2023-07-31T10:06:37;3.80;;;2.10;;
59872;SDS011;50750;51.636;4.948;2023-07-31T10:09:06;3.70;;;2.10;;
59872;SDS011;50750;51.636;4.948;2023-07-31T10:11:37;2.70;;;1.60;;
59872;SDS011;50750;51.636;4.948;2023-07-31T10:14:07;3.50;;;1.90;;
59872;SDS011;50750;51.636;4.948;2023-07-31T10:16:37;4.00;;;2.10;;
59872;SDS011;50750;51.636;4.948;2023-07-31T10:21:31;3.70;;;1.80;;
59872;SDS011;50750;51.636;4.948;2023-07-31T10:24:02;2.90;;;1.90;;
59872;SDS011;50750;51.636;4.948;2023-07-31T10:29:01;4.10;;;2.10;;
59872;SDS011;50750;51.636;4.948;2023-07-31T10:31:28;3.10;;;1.90;;
59872;SDS011;50750;51.636;4.948;2023-07-31T10:33:56;2.80;;;1.70;;
59872;SDS011;50750;51.636;4.948;2023-07-31T10:36:25;3.70;;;1.90;;
59872;SDS011;50750;51.636;4.948;2023-07-31T10:38:51;3.90;;;2.10;;
59872;SDS011;50750;51.636;4.948;2023-07-31T10:41:18;2.70;;;1.80;;
59872;SDS011;50750;51.636;4.948;2023-07-31T10:43:48;3.00;;;1.90;;
59872;SDS011;50750;51.636;4.948;2023-07-31T10:46:14;4.00;;;2.00;;
59872;SDS011;50750;51.636;4.948;2023-07-31T10:48:41;3.20;;;1.70;;
59872;SDS011;50750;51.636;4.948;2023-07-31T10:51:08;3.30;;;1.90;;
59872;SDS011;50750;51.636;4.948;2023-07-31T10:53:36;3.20;;;2.00;;
59872;SDS011;50750;51.636;4.948;2023-07-31T10:56:04;2.90;;;1.90;;
59872;SDS011;50750;51.636;4.948;2023-07-31T10:58:38;3.90;;;1.90;;
59872;SDS011;50750;51.636;4.948;2023-07-31T11:01:05;3.00;;;2.10;;
59872;SDS011;50750;51.636;4.948;2023-07-31T11:03:42;3.40;;;2.00;;
59872;SDS011;50750;51.636;4.948;2023-07-31T11:06:10;3.90;;;2.10;;
59872;SDS011;50750;51.636;4.948;2023-07-31T11:08:44;3.30;;;2.00;;
59872;SDS011;50750;51.636;4.948;2023-07-31T11:11:12;3.20;;;1.90;;
59872;SDS011;50750;51.636;4.948;2023-07-31T11:13:50;2.80;;;1.80;;
59872;SDS011;50750;51.636;4.948;2023-07-31T11:16:20;3.40;;;2.10;;
59872;SDS011;50750;51.636;4.948;2023-07-31T11:18:48;3.00;;;1.90;;
59872;SDS011;50750;51.636;4.948;2023-07-31T11:21:16;2.90;;;1.90;;
59872;SDS011;50750;51.636;4.948;2023-07-31T11:23:53;2.90;;;1.80;;
59872;SDS011;50750;51.636;4.948;2023-07-31T11:26:23;2.40;;;1.50;;
59872;SDS011;50750;51.636;4.948;2023-07-31T11:28:50;3.40;;;1.90;;
59872;SDS011;50750;51.636;4.948;2023-07-31T11:31:17;3.10;;;1.90;;
59872;SDS011;50750;51.636;4.948;2023-07-31T11:33:44;3.20;;;1.90;;
59872;SDS011;50750;51.636;4.948;2023-07-31T11:36:16;3.80;;;1.70;;
59872;SDS011;50750;51.636;4.948;2023-07-31T11:38:44;2.80;;;1.80;;
59872;SDS011;50750;51.636;4.948;2023-07-31T11:41:13;2.70;;;1.60;;
59872;SDS011;50750;51.636;4.948;2023-07-31T11:43:40;2.90;;;1.50;;
59872;SDS011;50750;51.636;4.948;2023-07-31T11:46:06;2.80;;;1.90;;
59872;SDS011;50750;51.636;4.948;2023-07-31T11:48:34;3.30;;;1.70;;
59872;SDS011;50750;51.636;4.948;2023-07-31T11:51:05;2.60;;;1.60;;
59872;SDS011;50750;51.636;4.948;2023-07-31T11:53:38;2.90;;;2.00;;
59872;SDS011;50750;51.636;4.948;2023-07-31T11:56:10;2.40;;;1.60;;
59872;SDS011;50750;51.636;4.948;2023-07-31T11:58:39;2.90;;;1.70;;
59872;SDS011;50750;51.636;4.948;2023-07-31T12:01:07;3.10;;;1.90;;
59872;SDS011;50750;51.636;4.948;2023-07-31T12:03:34;2.80;;;1.80;;
59872;SDS011;50750;51.636;4.948;2023-07-31T12:06:01;3.20;;;1.90;;
59872;SDS011;50750;51.636;4.948;2023-07-31T12:08:29;4.30;;;2.00;;
59872;SDS011;50750;51.636;4.948;2023-07-31T12:11:02;2.80;;;2.00;;
59872;SDS011;50750;51.636;4.948;2023-07-31T12:13:33;2.60;;;1.70;;
59872;SDS011;50750;51.636;4.948;2023-07-31T12:16:00;3.00;;;1.90;;
59872;SDS011;50750;51.636;4.948;2023-07-31T12:18:30;3.20;;;2.00;;
59872;SDS011;50750;51.636;4.948;2023-07-31T12:21:01;2.50;;;1.70;;
59872;SDS011;50750;51.636;4.948;2023-07-31T12:23:31;2.70;;;1.70;;
59872;SDS011;50750;51.636;4.948;2023-07-31T12:26:00;3.10;;;2.00;;
59872;SDS011;50750;51.636;4.948;2023-07-31T12:28:28;3.00;;;1.80;;
59872;SDS011;50750;51.636;4.948;2023-07-31T12:30:59;3.00;;;1.80;;
59872;SDS011;50750;51.636;4.948;2023-07-31T12:33:33;3.40;;;1.90;;
59872;SDS011;50750;51.636;4.948;2023-07-31T12:36:02;2.80;;;1.80;;
59872;SDS011;50750;51.636;4.948;2023-07-31T12:38:30;2.90;;;1.60;;
59872;SDS011;50750;51.636;4.948;2023-07-31T12:40:57;3.00;;;1.80;;
59872;SDS011;50750;51.636;4.948;2023-07-31T12:43:24;3.00;;;1.90;;
59872;SDS011;50750;51.636;4.948;2023-07-31T12:45:50;3.40;;;1.80;;
59872;SDS011;50750;51.636;4.948;2023-07-31T12:48:16;4.10;;;2.00;;
59872;SDS011;50750;51.636;4.948;2023-07-31T12:50:44;4.00;;;2.30;;
59872;SDS011;50750;51.636;4.948;2023-07-31T12:53:10;3.80;;;1.90;;
59872;SDS011;50750;51.636;4.948;2023-07-31T12:55:36;3.00;;;1.90;;
59872;SDS011;50750;51.636;4.948;2023-07-31T12:58:03;4.10;;;2.20;;
59872;SDS011;50750;51.636;4.948;2023-07-31T13:00:30;4.50;;;2.30;;
59872;SDS011;50750;51.636;4.948;2023-07-31T13:02:56;3.20;;;2.00;;
59872;SDS011;50750;51.636;4.948;2023-07-31T13:05:22;4.50;;;2.10;;
59872;SDS011;50750;51.636;4.948;2023-07-31T13:07:49;2.80;;;2.10;;
59872;SDS011;50750;51.636;4.948;2023-07-31T13:10:15;3.70;;;2.20;;
59872;SDS011;50750;51.636;4.948;2023-07-31T13:12:41;3.20;;;2.20;;
59872;SDS011;50750;51.636;4.948;2023-07-31T13:15:08;3.80;;;2.20;;
59872;SDS011;50750;51.636;4.948;2023-07-31T13:17:35;3.20;;;2.20;;
59872;SDS011;50750;51.636;4.948;2023-07-31T13:20:02;3.60;;;2.30;;
59872;SDS011;50750;51.636;4.948;2023-07-31T13:22:29;4.60;;;2.40;;
59872;SDS011;50750;51.636;4.948;2023-07-31T13:24:55;4.00;;;2.20;;
59872;SDS011;50750;51.636;4.948;2023-07-31T13:27:22;3.90;;;2.10;;
59872;SDS011;50750;51.636;4.948;2023-07-31T13:29:50;4.30;;;2.40;;
59872;SDS011;50750;51.636;4.948;2023-07-31T13:32:17;3.40;;;2.20;;
59872;SDS011;50750;51.636;4.948;2023-07-31T13:34:46;5.00;;;2.50;;
59872;SDS011;50750;51.636;4.948;2023-07-31T13:37:13;3.50;;;2.10;;
59872;SDS011;50750;51.636;4.948;2023-07-31T13:39:40;3.70;;;2.20;;
59872;SDS011;50750;51.636;4.948;2023-07-31T13:42:07;4.40;;;2.10;;
59872;SDS011;50750;51.636;4.948;2023-07-31T13:44:37;5.10;;;2.20;;
59872;SDS011;50750;51.636;4.948;2023-07-31T13:47:05;4.10;;;2.30;;
59872;SDS011;50750;51.636;4.948;2023-07-31T13:49:32;4.10;;;2.50;;
59872;SDS011;50750;51.636;4.948;2023-07-31T13:51:58;3.30;;;2.20;;
59872;SDS011;50750;51.636;4.948;2023-07-31T13:54:24;4.00;;;2.10;;
59872;SDS011;50750;51.636;4.948;2023-07-31T13:56:52;3.30;;;2.10;;
59872;SDS011;50750;51.636;4.948;2023-07-31T13:59:19;4.70;;;2.30;;
59872;SDS011;50750;51.636;4.948;2023-07-31T14:01:46;3.00;;;2.10;;
59872;SDS011;50750;51.636;4.948;2023-07-31T14:04:13;3.50;;;2.20;;
59872;SDS011;50750;51.636;4.948;2023-07-31T14:06:39;3.60;;;2.20;;
59872;SDS011;50750;51.636;4.948;2023-07-31T14:09:06;3.70;;;2.50;;
59872;SDS011;50750;51.636;4.948;2023-07-31T14:11:32;4.40;;;2.30;;
59872;SDS011;50750;51.636;4.948;2023-07-31T14:13:59;4.20;;;2.60;;
59872;SDS011;50750;51.636;4.948;2023-07-31T14:16:26;3.40;;;2.30;;
59872;SDS011;50750;51.636;4.948;2023-07-31T14:18:52;3.50;;;2.40;;
59872;SDS011;50750;51.636;4.948;2023-07-31T14:21:19;3.70;;;2.30;;
59872;SDS011;50750;51.636;4.948;2023-07-31T14:23:46;4.00;;;2.60;;
59872;SDS011;50750;51.636;4.948;2023-07-31T14:26:13;3.70;;;2.60;;
59872;SDS011;50750;51.636;4.948;2023-07-31T14:28:39;3.80;;;2.40;;
59872;SDS011;50750;51.636;4.948;2023-07-31T14:31:05;4.10;;;2.40;;
59872;SDS011;50750;51.636;4.948;2023-07-31T14:33:32;3.80;;;2.30;;
59872;SDS011;50750;51.636;4.948;2023-07-31T14:35:58;3.70;;;2.10;;
59872;SDS011;50750;51.636;4.948;2023-07-31T14:38:25;3.00;;;2.00;;
59872;SDS011;50750;51.636;4.948;2023-07-31T14:40:51;4.60;;;2.30;;
59872;SDS011;50750;51.636;4.948;2023-07-31T14:43:18;3.70;;;2.20;;
59872;SDS011;50750;51.636;4.948;2023-07-31T14:45:44;4.30;;;2.40;;
59872;SDS011;50750;51.636;4.948;2023-07-31T14:48:12;3.90;;;2.40;;
59872;SDS011;50750;51.636;4.948;2023-07-31T14:50:39;3.70;;;2.20;;
59872;SDS011;50750;51.636;4.948;2023-07-31T14:53:05;3.90;;;2.10;;
59872;SDS011;50750;51.636;4.948;2023-07-31T14:55:32;4.70;;;2.40;;
59872;SDS011;50750;51.636;4.948;2023-07-31T14:57:58;3.90;;;2.50;;
59872;SDS011;50750;51.636;4.948;2023-07-31T15:00:25;3.60;;;2.30;;
59872;SDS011;50750;51.636;4.948;2023-07-31T15:02:52;4.20;;;2.40;;
59872;SDS011;50750;51.636;4.948;2023-07-31T15:05:19;3.50;;;2.30;;